Time;durP1;ratioP1;P1;durP2;ratioP2;P2;SDS_P1;SDS_P2;PMS_P1;PMS_P2;Temp;Humidity;BMP_temperature;BMP_pressure;BME280_temperature;BME280_humidity;BME280_pressure;Samples;Min_cycle;Max_cycle;Signal;HPM_P1;HPM_P2
2022/08/15 00:01:49;;;;;;;10.10;8.38;;;21.40;99.90;;;;;;4735582;30;20061;-93
2022/08/15 00:04:14;;;;;;;14.07;7.75;;;21.40;99.90;;;;;;4736517;30;20052;-93
2022/08/15 00:06:47;;;;;;;11.02;7.22;;;21.40;99.90;;;;;;4736761;30;20055;-93
2022/08/15 00:09:18;;;;;;;14.15;7.60;;;21.80;99.90;;;;;;4735640;30;20108;-93
2022/08/15 00:11:46;;;;;;;10.48;7.85;;;21.30;99.90;;;;;;4738146;30;20137;-91
2022/08/15 00:14:21;;;;;;;8.30;7.10;;;21.30;99.90;;;;;;4735750;30;20052;-93
2022/08/15 00:16:48;;;;;;;18.30;8.25;;;21.30;99.90;;;;;;4736027;30;20090;-91
2022/08/15 00:19:23;;;;;;;18.52;7.55;;;21.30;99.90;;;;;;4736101;30;20058;-92
2022/08/15 00:21:54;;;;;;;13.93;7.93;;;21.40;99.90;;;;;;4733275;30;20140;-93
2022/08/15 00:24:25;;;;;;;13.40;7.60;;;21.20;99.90;;;;;;4732869;30;20056;-93
2022/08/15 00:26:52;;;;;;;11.55;7.25;;;21.30;99.90;;;;;;4733740;30;20060;-92
2022/08/15 00:29:20;;;;;;;12.38;7.47;;;21.20;99.90;;;;;;4732419;30;20410;-93
2022/08/15 00:32:16;;;;;;;9.07;7.45;;;21.20;99.90;;;;;;4733591;30;20097;-93
2022/08/15 00:34:42;;;;;;;9.40;7.75;;;21.20;99.90;;;;;;4733442;30;20048;-93
2022/08/15 00:37:08;;;;;;;11.38;8.02;;;21.10;99.90;;;;;;4732575;30;20048;-92
2022/08/15 00:39:35;;;;;;;13.40;8.38;;;21.10;99.90;;;;;;4733144;30;20044;-92
2022/08/15 00:42:05;;;;;;;13.30;8.73;;;21.10;99.90;;;;;;4732668;30;20062;-91
2022/08/15 00:44:40;;;;;;;13.25;7.72;;;21.10;99.90;;;;;;4732996;30;20048;-92
2022/08/15 00:47:19;;;;;;;12.05;8.20;;;21.20;99.90;;;;;;4732900;30;20486;-92
2022/08/15 00:49:48;;;;;;;13.32;7.72;;;21.10;99.90;;;;;;4732820;30;20123;-93
2022/08/15 00:52:24;;;;;;;14.15;8.38;;;21.10;99.90;;;;;;4732696;30;20059;-92
2022/08/15 00:54:54;;;;;;;10.43;7.88;;;21.10;99.90;;;;;;4733057;30;20425;-92
2022/08/15 00:57:41;;;;;;;12.00;8.68;;;21.00;99.90;;;;;;4731697;30;20060;-93
2022/08/15 01:00:18;;;;;;;9.55;7.80;;;21.00;99.90;;;;;;4732944;30;20051;-93
2022/08/15 01:02:45;;;;;;;12.40;8.50;;;20.90;99.90;;;;;;4732570;30;20075;-92
2022/08/15 01:05:13;;;;;;;11.48;8.57;;;20.90;99.90;;;;;;4732279;30;20052;-92
2022/08/15 01:07:42;;;;;;;12.43;8.13;;;20.80;99.90;;;;;;4732845;30;20113;-93
2022/08/15 01:10:21;;;;;;;12.98;9.40;;;20.80;99.90;;;;;;4745871;30;20130;-93
2022/08/15 01:12:47;;;;;;;12.82;8.85;;;20.70;99.90;;;;;;4732409;30;20462;-93
2022/08/15 01:15:15;;;;;;;10.63;8.95;;;20.70;99.90;;;;;;4734955;30;20047;-92
2022/08/15 01:17:42;;;;;;;15.30;9.65;;;20.70;99.90;;;;;;4734944;30;20055;-91
2022/08/15 01:20:20;;;;;;;12.75;9.48;;;20.60;99.90;;;;;;4735634;30;20056;-92
2022/08/15 01:23:09;;;;;;;12.18;9.27;;;20.60;99.90;;;;;;4735673;30;20138;-92
2022/08/15 01:25:44;;;;;;;15.60;10.18;;;20.60;99.90;;;;;;4734949;30;20142;-92
2022/08/15 01:28:16;;;;;;;12.38;10.15;;;20.60;99.90;;;;;;4735420;30;20168;-93
2022/08/15 01:30:47;;;;;;;11.38;9.65;;;20.60;99.90;;;;;;4734851;30;20113;-93
2022/08/15 01:33:14;;;;;;;18.13;9.90;;;20.60;99.90;;;;;;4734753;30;20056;-94
2022/08/15 01:35:40;;;;;;;13.40;9.75;;;20.60;99.90;;;;;;4737324;30;20091;-92
2022/08/15 01:38:21;;;;;;;13.40;9.25;;;20.60;99.90;;;;;;4738677;30;20044;-91
2022/08/15 01:40:58;;;;;;;12.52;10.00;;;20.50;99.90;;;;;;4738980;30;20178;-93
2022/08/15 01:43:28;;;;;;;13.55;9.93;;;20.50;99.90;;;;;;4735084;30;20510;-93
2022/08/15 01:45:59;;;;;;;13.77;10.63;;;20.50;99.90;;;;;;4720462;30;20048;-93
2022/08/15 01:48:32;;;;;;;12.65;10.35;;;20.50;99.90;;;;;;4735308;30;20149;-93
2022/08/15 01:51:01;;;;;;;12.85;10.07;;;20.50;99.90;;;;;;4721414;30;20052;-92
2022/08/15 01:53:36;;;;;;;13.95;10.25;;;20.50;99.90;;;;;;4720042;30;20063;-93
2022/08/15 01:56:08;;;;;;;14.80;9.57;;;20.50;99.90;;;;;;4721374;30;20142;-94
2022/08/15 01:58:42;;;;;;;17.30;10.55;;;20.50;99.90;;;;;;4720675;30;20044;-94
2022/08/15 02:01:13;;;;;;;12.30;10.05;;;20.50;99.90;;;;;;4741961;30;20398;-93
2022/08/15 02:03:41;;;;;;;14.07;11.48;;;20.60;99.90;;;;;;4738033;30;20066;-94
2022/08/15 02:06:12;;;;;;;19.77;11.77;;;20.60;99.90;;;;;;4737924;30;20047;-93
2022/08/15 02:08:40;;;;;;;13.55;11.38;;;20.60;99.90;;;;;;4737904;30;20067;-92
2022/08/15 02:11:09;;;;;;;19.13;11.95;;;20.60;99.90;;;;;;4737698;30;20145;-93
2022/08/15 02:13:36;;;;;;;13.18;10.95;;;20.60;99.90;;;;;;4737578;30;20080;-93
2022/08/15 02:16:13;;;;;;;13.25;11.07;;;20.60;99.90;;;;;;4738295;30;20474;-93
2022/08/15 02:18:38;;;;;;;14.80;10.75;;;20.70;99.90;;;;;;4738055;30;20055;-93
2022/08/15 02:21:05;;;;;;;14.88;10.00;;;20.70;99.90;;;;;;4737865;30;20055;-93
2022/08/15 02:23:32;;;;;;;13.90;10.60;;;20.70;99.90;;;;;;4737991;30;20051;-93
2022/08/15 02:25:59;;;;;;;15.27;10.90;;;20.70;99.90;;;;;;4738195;30;20497;-92
2022/08/15 02:28:25;;;;;;;15.07;11.70;;;20.70;99.90;;;;;;4737103;30;20390;-93
2022/08/15 02:30:53;;;;;;;14.27;10.77;;;20.70;99.90;;;;;;4738089;30;20056;-92
2022/08/15 02:33:21;;;;;;;18.55;11.93;;;20.70;99.90;;;;;;4738251;30;20051;-92
2022/08/15 02:35:47;;;;;;;14.65;11.63;;;20.80;99.90;;;;;;4737434;30;20055;-94
2022/08/15 02:38:25;;;;;;;17.20;11.38;;;20.80;99.90;;;;;;4737733;30;20052;-93
2022/08/15 02:40:51;;;;;;;14.73;10.57;;;20.80;99.90;;;;;;4737827;30;20056;-91
2022/08/15 02:43:21;;;;;;;13.05;10.82;;;20.80;99.90;;;;;;4736630;30;20112;-92
2022/08/15 02:45:48;;;;;;;14.82;10.73;;;20.80;99.90;;;;;;4737452;30;20158;-92
2022/08/15 02:48:15;;;;;;;13.98;11.38;;;20.80;99.90;;;;;;4737308;30;20413;-92
2022/08/15 02:50:41;;;;;;;15.10;10.90;;;20.70;99.90;;;;;;4736634;30;20122;-93
2022/08/15 02:53:14;;;;;;;14.48;11.32;;;20.70;99.90;;;;;;4737749;30;20048;-92
2022/08/15 02:55:41;;;;;;;15.77;11.90;;;20.70;99.90;;;;;;4737710;30;20150;-93
2022/08/15 02:58:09;;;;;;;13.90;11.25;;;20.70;99.90;;;;;;4737107;30;20054;-93
2022/08/15 03:00:35;;;;;;;17.75;11.77;;;20.60;99.90;;;;;;4737252;30;20083;-93
2022/08/15 03:03:15;;;;;;;16.02;12.02;;;20.60;99.90;;;;;;4736563;30;20109;-94
2022/08/15 03:05:45;;;;;;;16.70;11.75;;;20.50;99.90;;;;;;4737116;30;20489;-92
2022/08/15 03:08:12;;;;;;;14.45;11.45;;;20.50;99.90;;;;;;4737444;30;20062;-94
2022/08/15 03:10:40;;;;;;;16.45;11.40;;;20.50;99.90;;;;;;4736938;30;20058;-93
2022/08/15 03:13:11;;;;;;;13.05;11.18;;;20.50;99.90;;;;;;4737091;30;20055;-92
2022/08/15 03:15:42;;;;;;;14.35;11.20;;;20.50;99.90;;;;;;4736684;30;20075;-93
2022/08/15 03:18:15;;;;;;;15.20;12.25;;;20.50;99.90;;;;;;4737203;30;20052;-93
2022/08/15 03:20:42;;;;;;;13.32;11.85;;;20.50;99.90;;;;;;4737623;30;20076;-92
2022/08/15 03:23:08;;;;;;;14.65;11.55;;;20.40;99.90;;;;;;4736536;30;20043;-92
2022/08/15 03:25:40;;;;;;;13.40;11.05;;;20.40;99.90;;;;;;4736444;30;20054;-93
2022/08/15 03:28:06;;;;;;;13.90;12.00;;;20.40;99.90;;;;;;4736363;30;20094;-93
2022/08/15 03:30:32;;;;;;;13.48;10.82;;;20.30;99.90;;;;;;4736484;30;20099;-93
2022/08/15 03:32:58;;;;;;;14.48;11.43;;;20.30;99.90;;;;;;4733213;30;20087;-93
2022/08/15 03:35:27;;;;;;;18.50;11.27;;;20.30;99.90;;;;;;4733819;30;20498;-93
2022/08/15 03:37:54;;;;;;;14.80;10.77;;;20.30;99.90;;;;;;4719253;30;20059;-92
2022/08/15 03:40:22;;;;;;;14.25;12.15;;;20.30;99.90;;;;;;4719185;30;20072;-92
2022/08/15 03:42:53;;;;;;;14.15;11.65;;;20.30;99.90;;;;;;4719435;30;20394;-92
2022/08/15 03:45:20;;;;;;;21.40;12.23;;;20.20;99.90;;;;;;4718355;30;20143;-92
2022/08/15 03:47:47;;;;;;;12.48;11.18;;;20.20;99.90;;;;;;4719344;30;20063;-92
2022/08/15 03:50:23;;;;;;;12.90;11.57;;;20.20;99.90;;;;;;4748197;30;20511;-92
2022/08/15 03:52:59;;;;;;;13.25;11.30;;;20.20;99.90;;;;;;4732937;30;20520;-92
2022/08/15 03:55:28;;;;;;;15.38;11.35;;;20.20;99.90;;;;;;4719277;30;20513;-92
2022/08/15 03:58:06;;;;;;;12.95;11.32;;;20.20;99.90;;;;;;4719354;30;20087;-91
2022/08/15 04:00:36;;;;;;;13.10;11.63;;;20.20;99.90;;;;;;4718012;30;20070;-92
2022/08/15 04:03:07;;;;;;;13.73;11.48;;;20.20;99.90;;;;;;4718941;30;20091;-93
2022/08/15 04:05:34;;;;;;;12.15;10.38;;;20.20;99.90;;;;;;4719308;30;20059;-92
2022/08/15 04:08:02;;;;;;;15.82;11.27;;;20.10;99.90;;;;;;4747835;30;20051;-92
2022/08/15 04:10:29;;;;;;;15.02;11.15;;;20.20;99.90;;;;;;4719522;30;20157;-91
2022/08/15 04:13:01;;;;;;;14.10;10.73;;;20.20;99.90;;;;;;4749919;30;20459;-92
2022/08/15 04:15:28;;;;;;;12.90;11.07;;;20.10;99.90;;;;;;4735728;30;20056;-91
2022/08/15 04:17:57;;;;;;;13.82;12.20;;;20.10;99.90;;;;;;4736623;30;20063;-93
2022/08/15 04:20:32;;;;;;;15.98;11.90;;;20.10;99.90;;;;;;4735428;30;20463;-94
2022/08/15 04:22:59;;;;;;;15.93;13.13;;;20.00;99.90;;;;;;4717274;30;20174;-94
2022/08/15 04:25:36;;;;;;;16.70;12.88;;;20.00;99.90;;;;;;4723894;30;20059;-91
2022/08/15 04:28:29;;;;;;;14.95;12.20;;;20.00;99.90;;;;;;4729262;30;20472;-92
2022/08/15 04:30:55;;;;;;;16.83;12.15;;;19.90;99.90;;;;;;4740099;30;20844;-92
2022/08/15 04:33:24;;;;;;;13.93;11.45;;;19.80;99.90;;;;;;4732932;30;20069;-91
2022/08/15 04:35:53;;;;;;;17.67;13.88;;;19.80;99.90;;;;;;4740947;30;20053;-92
2022/08/15 04:38:19;;;;;;;16.50;14.73;;;19.80;99.90;;;;;;4728249;30;20151;-92
2022/08/15 04:40:46;;;;;;;14.02;11.88;;;19.80;99.90;;;;;;4741983;30;20144;-92
2022/08/15 04:43:12;;;;;;;15.52;13.63;;;19.80;99.90;;;;;;4733724;30;20104;-91
2022/08/15 04:45:43;;;;;;;14.95;13.35;;;19.80;99.90;;;;;;4740054;30;20060;-92
2022/08/15 04:48:14;;;;;;;17.00;13.25;;;20.20;99.90;;;;;;4740947;30;20079;-91
2022/08/15 04:50:42;;;;;;;16.35;13.38;;;19.90;99.90;;;;;;4728491;30;20063;-92
2022/08/15 04:53:08;;;;;;;16.05;14.35;;;19.90;99.90;;;;;;4743055;30;20105;-92
2022/08/15 04:55:36;;;;;;;18.80;14.80;;;19.90;99.90;;;;;;4740298;30;20058;-93
2022/08/15 04:58:03;;;;;;;15.80;14.00;;;20.00;99.90;;;;;;4727478;30;20052;-92
2022/08/15 05:00:31;;;;;;;17.60;13.95;;;20.00;99.90;;;;;;4742052;30;20048;-91
2022/08/15 05:03:09;;;;;;;17.10;14.23;;;20.00;99.90;;;;;;4739901;30;20052;-93
2022/08/15 05:05:40;;;;;;;20.85;15.05;;;20.10;99.90;;;;;;4740885;30;20048;-91
2022/08/15 05:08:06;;;;;;;21.52;14.23;;;20.20;99.90;;;;;;4741482;30;20055;-92
2022/08/15 05:10:39;;;;;;;16.05;12.93;;;20.20;99.90;;;;;;4742908;30;20072;-93
2022/08/15 05:13:18;;;;;;;19.73;15.13;;;20.20;99.90;;;;;;4747227;30;20106;-93
2022/08/15 05:15:45;;;;;;;18.80;13.48;;;20.30;99.90;;;;;;4745400;30;20044;-93
2022/08/15 05:18:11;;;;;;;20.13;13.35;;;20.30;99.90;;;;;;4743679;30;20067;-92
2022/08/15 05:20:37;;;;;;;14.45;12.35;;;20.30;99.90;;;;;;4745455;30;20048;-92
2022/08/15 05:23:07;;;;;;;16.25;14.05;;;20.40;99.90;;;;;;4743733;30;20043;-92
2022/08/15 05:25:36;;;;;;;18.67;14.07;;;20.40;99.90;;;;;;4743484;30;20101;-91
2022/08/15 05:28:12;;;;;;;17.95;13.70;;;20.40;99.90;;;;;;4733524;30;20055;-91
2022/08/15 05:30:38;;;;;;;14.90;13.27;;;20.60;99.90;;;;;;4759899;30;20059;-91
2022/08/15 05:33:07;;;;;;;15.98;13.35;;;20.40;99.90;;;;;;4770228;30;20569;-91
2022/08/15 05:35:42;;;;;;;15.20;13.45;;;20.50;99.90;;;;;;4753300;30;20047;-92
2022/08/15 05:38:14;;;;;;;17.13;13.95;;;20.40;99.90;;;;;;4747379;30;20050;-91
2022/08/15 05:41:04;;;;;;;16.15;13.45;;;20.50;99.90;;;;;;4755801;30;20513;-91
2022/08/15 05:43:49;;;;;;;16.15;12.93;;;20.50;99.90;;;;;;4754396;30;20152;-91
2022/08/15 05:46:39;;;;;;;14.70;12.93;;;20.50;99.90;;;;;;4753342;30;20100;-91
2022/08/15 05:49:21;;;;;;;15.70;13.85;;;20.50;99.90;;;;;;4753959;30;20500;-91
2022/08/15 05:52:07;;;;;;;15.88;14.18;;;20.50;99.90;;;;;;4752976;30;20055;-91
2022/08/15 05:54:55;;;;;;;17.58;13.40;;;20.70;99.90;;;;;;4757878;30;20485;-93
2022/08/15 05:57:46;;;;;;;19.05;13.43;;;20.60;99.90;;;;;;4761736;30;20597;-92
2022/08/15 06:00:15;;;;;;;21.13;14.85;;;20.70;99.90;;;;;;4761416;30;20086;-93
2022/08/15 06:03:03;;;;;;;17.67;15.48;;;20.70;99.90;;;;;;4762360;30;20112;-92
2022/08/15 06:05:47;;;;;;;17.60;14.50;;;20.80;99.90;;;;;;4754810;30;20051;-93
2022/08/15 06:08:26;;;;;;;20.90;14.95;;;20.80;99.90;;;;;;4763319;30;20113;-92
2022/08/15 06:11:02;;;;;;;20.65;15.02;;;20.80;99.90;;;;;;4749477;30;20048;-91
2022/08/15 06:13:40;;;;;;;19.52;14.00;;;20.90;99.90;;;;;;4749036;30;20062;-91
2022/08/15 06:16:42;;;;;;;22.83;14.55;;;20.90;99.90;;;;;;4754244;30;20047;-91
2022/08/15 06:19:29;;;;;;;18.00;15.98;;;21.00;99.90;;;;;;4748734;30;20055;-91
2022/08/15 06:22:37;;;;;;;;;;;;;;;;;;;;;
2022/08/15 06:25:26;;;;;;;17.45;15.63;;;21.20;99.90;;;;;;4759629;30;20512;-91
2022/08/15 06:28:42;;;;;;;17.70;15.07;;;21.20;99.90;;;;;;4783332;30;20067;-90
2022/08/15 06:31:24;;;;;;;17.55;15.73;;;21.30;99.90;;;;;;4761336;30;20055;-90
2022/08/15 06:34:10;;;;;;;18.15;14.98;;;21.40;99.90;;;;;;4751878;30;20622;-91
2022/08/15 06:36:52;;;;;;;18.80;15.02;;;21.40;99.90;;;;;;4746768;30;20043;-91
2022/08/15 06:39:31;;;;;;;21.98;15.07;;;21.50;99.90;;;;;;4759242;30;20509;-90
2022/08/15 06:42:01;;;;;;;19.60;15.82;;;21.60;99.90;;;;;;4745976;30;20476;-90
2022/08/15 06:44:28;;;;;;;16.48;14.82;;;21.60;99.90;;;;;;4761606;30;20545;-90
2022/08/15 06:47:03;;;;;;;17.33;14.98;;;21.70;99.90;;;;;;4753311;30;20078;-89
2022/08/15 06:49:32;;;;;;;21.05;15.30;;;21.70;99.90;;;;;;4753278;30;20131;-89
2022/08/15 06:51:59;;;;;;;20.65;16.15;;;21.90;99.90;;;;;;4753951;30;20039;-88
2022/08/15 06:54:28;;;;;;;17.80;15.38;;;21.90;99.90;;;;;;4752965;30;20058;-89
2022/08/15 06:57:03;;;;;;;18.90;15.52;;;22.00;99.90;;;;;;4751328;30;20074;-88
2022/08/15 06:59:49;;;;;;;19.45;15.75;;;22.00;99.90;;;;;;4753267;30;20051;-88
2022/08/15 07:02:21;;;;;;;22.80;16.35;;;22.10;99.90;;;;;;4759285;30;20071;-88
2022/08/15 07:05:10;;;;;;;18.80;15.57;;;22.20;99.90;;;;;;4780007;30;20044;-90
2022/08/15 07:07:55;;;;;;;16.10;14.50;;;22.20;99.90;;;;;;4746490;30;20055;-88
2022/08/15 07:10:35;;;;;;;19.55;15.43;;;22.30;99.90;;;;;;4747676;30;20082;-89
2022/08/15 07:13:12;;;;;;;18.15;13.73;;;22.40;99.90;;;;;;4748687;30;20163;-90
2022/08/15 07:15:56;;;;;;;17.15;13.55;;;22.50;99.90;;;;;;4760975;30;20489;-90
2022/08/15 07:18:36;;;;;;;29.15;14.45;;;22.70;99.90;;;;;;4761346;30;20116;-90
2022/08/15 07:21:11;;;;;;;20.35;14.00;;;22.70;99.90;;;;;;4754132;30;20061;-89
2022/08/15 07:24:00;;;;;;;18.33;13.18;;;22.90;99.90;;;;;;4752506;30;20047;-90
2022/08/15 07:26:30;;;;;;;16.70;12.43;;;23.30;99.90;;;;;;4751850;30;20051;-90
2022/08/15 07:28:59;;;;;;;21.50;12.45;;;23.50;99.90;;;;;;4759378;30;20059;-89
2022/08/15 07:31:31;;;;;;;17.92;12.73;;;23.70;99.90;;;;;;4767427;30;20514;-90
2022/08/15 07:34:05;;;;;;;23.90;11.75;;;23.80;99.90;;;;;;4752553;30;20058;-91
2022/08/15 07:36:33;;;;;;;15.98;11.35;;;23.90;99.90;;;;;;4763936;30;20071;-89
2022/08/15 07:39:02;;;;;;;14.88;11.77;;;23.90;99.90;;;;;;4753265;30;20489;-89
2022/08/15 07:41:30;;;;;;;19.25;11.18;;;23.90;99.90;;;;;;4777829;30;20453;-88
2022/08/15 07:43:59;;;;;;;16.90;10.80;;;24.00;99.90;;;;;;4748867;30;20062;-89
2022/08/15 07:46:40;;;;;;;13.95;10.75;;;24.10;99.90;;;;;;4752265;30;20493;-88
2022/08/15 07:49:19;;;;;;;13.98;11.43;;;24.20;99.90;;;;;;4755025;30;20048;-89
2022/08/15 07:51:57;;;;;;;18.80;10.68;;;24.30;99.90;;;;;;4754737;30;20047;-90
2022/08/15 07:54:28;;;;;;;12.57;10.13;;;24.60;99.90;;;;;;4754492;30;20055;-90
2022/08/15 07:56:58;;;;;;;10.85;9.63;;;24.80;99.90;;;;;;4769273;30;20188;-89
2022/08/15 07:59:28;;;;;;;12.43;9.43;;;25.10;99.90;;;;;;4759727;30;20103;-92
2022/08/15 08:02:22;;;;;;;16.13;9.57;;;25.20;99.90;;;;;;4754826;30;20063;-90
2022/08/15 08:04:48;;;;;;;15.65;8.93;;;25.30;99.90;;;;;;4755815;30;20103;-89
2022/08/15 08:07:30;;;;;;;13.02;8.00;;;25.60;99.90;;;;;;4739582;30;20138;-89
2022/08/15 08:10:03;;;;;;;13.63;7.00;;;25.80;99.90;;;;;;4747319;30;20055;-92
2022/08/15 08:12:52;;;;;;;12.00;7.25;;;26.10;99.90;;;;;;4753989;30;20092;-91
2022/08/15 08:15:29;;;;;;;11.82;6.95;;;26.30;99.90;;;;;;4754306;30;20089;-91
2022/08/15 08:18:05;;;;;;;12.02;6.68;;;26.60;99.90;;;;;;4755546;30;20126;-91
2022/08/15 08:20:36;;;;;;;11.90;5.88;;;26.80;99.90;;;;;;4755547;30;20111;-91
2022/08/15 08:23:06;;;;;;;7.97;6.13;;;27.00;99.90;;;;;;4754833;30;20047;-89
2022/08/15 08:25:44;;;;;;;10.48;6.25;;;27.20;99.90;;;;;;4754975;30;20115;-88
2022/08/15 08:28:31;;;;;;;10.10;5.60;;;27.30;99.90;;;;;;4754566;30;20493;-89
2022/08/15 08:31:26;;;;;;;7.32;5.40;;;27.40;99.90;;;;;;4754888;30;20051;-91
2022/08/15 08:34:05;;;;;;;7.78;5.20;;;27.50;99.90;;;;;;4753012;30;20044;-89
2022/08/15 08:36:44;;;;;;;12.55;4.88;;;27.60;99.90;;;;;;4765421;30;20044;-89
2022/08/15 08:39:22;;;;;;;8.45;4.35;;;27.50;99.90;;;;;;4751474;30;20062;-90
2022/08/15 08:42:06;;;;;;;10.02;5.15;;;27.30;99.90;;;;;;4736818;30;20039;-90
2022/08/15 08:44:40;;;;;;;12.48;5.47;;;27.30;99.90;;;;;;4736111;30;20055;-93
2022/08/15 08:47:30;;;;;;;8.30;5.20;;;27.30;99.90;;;;;;4737021;30;20058;-91
2022/08/15 08:50:21;;;;;;;9.93;5.60;;;27.30;99.90;;;;;;4737208;30;20091;-93
2022/08/15 08:52:52;;;;;;;11.90;6.82;;;27.20;99.90;;;;;;4751991;30;20166;-93
2022/08/15 08:55:28;;;;;;;15.07;6.68;;;27.20;99.90;;;;;;4751611;30;20197;-93
2022/08/15 08:58:06;;;;;;;9.05;6.70;;;27.30;99.90;;;;;;4737566;30;20365;-93
2022/08/15 09:00:40;;;;;;;9.77;6.35;;;27.40;99.90;;;;;;4737153;30;20163;-92
2022/08/15 09:03:21;;;;;;;10.88;6.35;;;27.50;99.90;;;;;;4752780;30;20132;-94
2022/08/15 09:05:51;;;;;;;15.10;6.77;;;27.40;99.90;;;;;;4737041;30;20044;-92
2022/08/15 09:08:25;;;;;;;8.88;6.18;;;27.40;99.90;;;;;;4737409;30;20493;-92
2022/08/15 09:10:58;;;;;;;10.60;6.07;;;27.50;99.90;;;;;;4737089;30;20119;-94
2022/08/15 09:13:34;;;;;;;10.43;5.47;;;27.70;99.90;;;;;;4736380;30;20060;-92
2022/08/15 09:16:31;;;;;;;11.38;5.43;;;28.00;99.90;;;;;;4737608;30;20070;-92
2022/08/15 09:19:23;;;;;;;7.82;4.85;;;28.20;99.90;;;;;;4737534;30;20043;-92
2022/08/15 09:21:50;;;;;;;10.25;5.32;;;28.30;99.90;;;;;;4736914;30;20092;-94
2022/08/15 09:24:19;;;;;;;7.13;4.70;;;28.50;99.90;;;;;;4737137;30;20142;-93
2022/08/15 09:26:46;;;;;;;10.20;5.30;;;28.70;99.90;;;;;;4737302;30;20486;-93
2022/08/15 09:29:26;;;;;;;7.97;5.07;;;28.70;99.90;;;;;;4751070;30;20086;-92
2022/08/15 09:32:21;;;;;;;7.18;4.80;;;28.80;99.90;;;;;;4751483;30;20116;-91
2022/08/15 09:35:11;;;;;;;6.32;3.30;;;28.90;99.90;;;;;;4755055;30;20142;-92
2022/08/15 09:38:09;;;;;;;7.25;3.47;;;29.10;99.90;;;;;;4754685;30;20105;-93
2022/08/15 09:41:20;;;;;;;6.43;3.47;;;29.40;99.90;;;;;;4754210;30;20078;-93
2022/08/15 09:44:04;;;;;;;9.05;3.42;;;29.60;99.90;;;;;;4753660;30;20063;-93
2022/08/15 09:46:49;;;;;;;13.80;3.70;;;29.60;99.90;;;;;;4754713;30;20133;-91
2022/08/15 09:49:32;;;;;;;6.32;3.20;;;29.80;99.90;;;;;;4754064;30;20055;-92
2022/08/15 09:52:26;;;;;;;5.10;3.00;;;29.90;99.90;;;;;;4754965;30;20094;-93
2022/08/15 09:54:56;;;;;;;5.95;3.10;;;29.90;99.90;;;;;;4754360;30;20055;-93
2022/08/15 09:57:37;;;;;;;5.93;3.72;;;29.90;99.90;;;;;;4756702;30;20055;-92
2022/08/15 10:00:19;;;;;;;5.45;3.75;;;29.80;99.90;;;;;;4757614;30;20625;-92
2022/08/15 10:02:51;;;;;;;5.68;4.03;;;29.70;99.70;;;;;;4757955;30;20051;-92
2022/08/15 10:05:44;;;;;;;6.78;3.70;;;29.60;99.20;;;;;;4757398;30;20413;-95
2022/08/15 10:08:13;;;;;;;10.70;4.53;;;29.50;99.10;;;;;;4758072;30;20063;-93
2022/08/15 10:10:56;;;;;;;12.68;4.40;;;29.40;99.40;;;;;;4757058;30;20058;-93
2022/08/15 10:13:26;;;;;;;8.32;3.90;;;29.30;99.60;;;;;;4756987;30;20058;-92
2022/08/15 10:15:53;;;;;;;11.60;4.13;;;29.20;99.80;;;;;;4757486;30;20050;-92
2022/08/15 10:19:01;;;;;;;8.93;4.53;;;29.20;99.90;;;;;;4756564;30;20047;-90
2022/08/15 10:21:34;;;;;;;5.90;3.88;;;29.20;99.70;;;;;;4756293;30;20059;-90
2022/08/15 10:24:03;;;;;;;12.70;4.45;;;29.20;99.90;;;;;;4754179;30;20055;-94
2022/08/15 10:26:37;;;;;;;8.05;3.70;;;29.20;99.90;;;;;;4739334;30;20104;-94
2022/08/15 10:29:17;;;;;;;5.50;4.07;;;29.20;99.90;;;;;;4739250;30;20603;-92
2022/08/15 10:31:52;;;;;;;5.85;4.20;;;29.10;99.80;;;;;;4739058;30;20047;-93
2022/08/15 10:34:35;;;;;;;7.25;4.25;;;29.10;99.80;;;;;;4753814;30;20058;-93
2022/08/15 10:37:09;;;;;;;;;;;29.10;99.90;;;;;;4772081;30;20055;-93
2022/08/15 10:39:47;;;;;;;6.50;4.13;;;29.10;99.90;;;;;;4771488;30;20360;-94
2022/08/15 10:42:33;;;;;;;7.13;4.55;;;29.20;99.90;;;;;;4755386;30;20103;-94
2022/08/15 10:45:11;;;;;;;7.90;4.13;;;29.30;99.90;;;;;;4767938;30;20055;-94
2022/08/15 10:47:55;;;;;;;7.07;4.28;;;29.30;99.70;;;;;;4770498;30;20048;-93
2022/08/15 10:50:58;;;;;;;7.65;4.43;;;29.40;99.90;;;;;;4756209;30;20055;-92
2022/08/15 10:54:00;;;;;;;12.82;4.50;;;29.50;99.20;;;;;;4752455;30;20051;-95
2022/08/15 10:56:33;;;;;;;12.38;4.55;;;29.50;98.70;;;;;;4770964;30;20061;-93
2022/08/15 10:59:06;;;;;;;8.25;4.70;;;29.40;98.70;;;;;;4770439;30;20659;-94
2022/08/15 11:01:33;;;;;;;7.22;4.32;;;29.50;99.10;;;;;;4760583;30;20059;-94
2022/08/15 11:04:03;;;;;;;14.52;5.40;;;29.50;99.10;;;;;;4751326;30;20077;-94
2022/08/15 11:06:30;;;;;;;15.35;4.80;;;29.50;99.20;;;;;;4752560;30;20043;-95
2022/08/15 11:09:08;;;;;;;14.82;6.28;;;29.50;99.00;;;;;;4767183;30;20058;-93
2022/08/15 11:11:43;;;;;;;6.15;4.38;;;29.70;99.10;;;;;;4753477;30;20124;-93
2022/08/15 11:14:22;;;;;;;8.48;4.68;;;29.90;98.30;;;;;;4752728;30;20048;-94
2022/08/15 11:16:51;;;;;;;7.83;4.70;;;30.00;98.00;;;;;;4752810;30;20055;-93
2022/08/15 11:19:33;;;;;;;8.73;5.00;;;30.00;97.70;;;;;;4767580;30;20059;-92
2022/08/15 11:22:04;;;;;;;11.30;5.57;;;30.00;97.30;;;;;;4752781;30;20592;-94
2022/08/15 11:24:33;;;;;;;7.68;5.07;;;29.80;96.90;;;;;;4767971;30;20202;-93
2022/08/15 11:27:24;;;;;;;11.20;5.95;;;29.70;97.10;;;;;;4752725;30;20317;-92
2022/08/15 11:29:53;;;;;;;12.63;8.32;;;29.50;97.00;;;;;;4751911;30;20071;-91
2022/08/15 11:32:36;;;;;;;17.33;8.32;;;29.30;97.60;;;;;;4752536;30;20063;-92
2022/08/15 11:35:05;;;;;;;;;;;29.00;98.50;;;;;;4752812;30;20055;-93
2022/08/15 11:37:38;;;;;;;13.93;9.80;;;28.80;99.30;;;;;;4765853;30;20391;-92
2022/08/15 11:40:09;;;;;;;13.93;9.35;;;28.60;99.50;;;;;;4752369;30;20483;-93
2022/08/15 11:42:39;;;;;;;15.93;9.63;;;28.40;99.90;;;;;;4752093;30;20166;-92
2022/08/15 11:45:13;;;;;;;16.20;9.50;;;28.30;99.90;;;;;;4750860;30;20047;-91
2022/08/15 11:47:46;;;;;;;12.50;9.13;;;28.10;99.90;;;;;;4752056;30;20133;-92
2022/08/15 11:50:25;;;;;;;18.67;9.35;;;28.00;99.90;;;;;;4752352;30;20047;-92
2022/08/15 11:52:54;;;;;;;14.98;8.75;;;27.90;99.90;;;;;;4752235;30;20069;-92
2022/08/15 11:55:42;;;;;;;13.02;8.48;;;27.90;99.90;;;;;;4751670;30;20065;-92
2022/08/15 11:58:12;;;;;;;13.57;7.93;;;27.80;99.90;;;;;;4751418;30;20058;-91
2022/08/15 12:00:44;;;;;;;10.07;8.60;;;27.80;99.90;;;;;;4751829;30;20051;-92
2022/08/15 12:03:35;;;;;;;12.00;8.18;;;27.70;99.90;;;;;;4751462;30;20051;-93
2022/08/15 12:06:01;;;;;;;12.57;7.80;;;27.70;99.90;;;;;;4749914;30;20056;-91
2022/08/15 12:08:30;;;;;;;12.25;7.60;;;27.70;99.90;;;;;;4751170;30;20051;-92
2022/08/15 12:11:04;;;;;;;15.48;7.38;;;27.70;99.90;;;;;;4752323;30;20058;-92
2022/08/15 12:13:29;;;;;;;11.80;7.30;;;27.70;99.90;;;;;;4750926;30;20063;-92
2022/08/15 12:15:55;;;;;;;11.20;6.53;;;27.70;99.90;;;;;;4751866;30;20517;-92
2022/08/15 12:18:22;;;;;;;13.13;7.20;;;27.70;99.90;;;;;;4751322;30;20065;-90
2022/08/15 12:20:55;;;;;;;13.00;6.35;;;27.70;99.90;;;;;;4751790;30;20051;-91
2022/08/15 12:23:25;;;;;;;11.40;6.75;;;27.70;99.90;;;;;;4748034;30;20063;-92
2022/08/15 12:25:53;;;;;;;10.55;6.53;;;27.70;99.90;;;;;;4752847;30;20051;-92
2022/08/15 12:28:20;;;;;;;13.00;6.85;;;27.70;99.90;;;;;;4763438;30;20483;-92
2022/08/15 12:30:47;;;;;;;12.68;6.55;;;27.70;99.90;;;;;;4749114;30;20067;-93
2022/08/15 12:33:14;;;;;;;8.43;5.78;;;27.70;99.90;;;;;;4747210;30;20066;-93
2022/08/15 12:35:41;;;;;;;10.10;5.70;;;27.70;99.90;;;;;;4748435;30;20138;-91
2022/08/15 12:38:10;;;;;;;8.80;5.80;;;27.70;99.90;;;;;;4767915;30;20134;-91
2022/08/15 12:40:39;;;;;;;10.20;6.10;;;27.80;99.90;;;;;;4753608;30;20063;-92
2022/08/15 12:43:05;;;;;;;7.70;4.70;;;27.80;99.90;;;;;;4753062;30;20051;-91
2022/08/15 12:45:31;;;;;;;8.32;4.60;;;27.90;99.90;;;;;;4752805;30;20062;-89
2022/08/15 12:47:57;;;;;;;11.18;5.28;;;27.90;99.90;;;;;;4752667;30;20477;-90
2022/08/15 12:50:23;;;;;;;7.85;5.43;;;27.90;99.90;;;;;;4752169;30;20115;-91
2022/08/15 12:52:48;;;;;;;9.20;4.55;;;27.90;99.90;;;;;;4743376;30;20047;-91
2022/08/15 12:55:14;;;;;;;6.38;4.45;;;28.00;99.90;;;;;;4764894;30;20048;-91
2022/08/15 12:57:40;;;;;;;9.73;4.50;;;28.00;99.90;;;;;;4752763;30;20068;-92
2022/08/15 13:00:07;;;;;;;5.93;4.13;;;28.00;99.90;;;;;;4767934;30;20382;-90
2022/08/15 13:02:41;;;;;;;9.13;4.20;;;28.00;99.90;;;;;;4752384;30;20051;-90
2022/08/15 13:05:30;;;;;;;7.28;4.32;;;28.00;99.90;;;;;;4753592;30;20047;-91
2022/08/15 13:07:56;;;;;;;8.10;4.50;;;28.00;99.90;;;;;;4752938;30;20130;-90
2022/08/15 13:10:35;;;;;;;7.53;4.35;;;28.00;99.90;;;;;;4752829;30;20059;-92
2022/08/15 13:13:00;;;;;;;6.07;5.47;;;27.90;99.90;;;;;;4749928;30;20476;-92